createdAt,value
2022-08-19T00:01:56.955Z,23.11
2022-08-19T00:04:28.450Z,23.18
2022-08-19T00:06:56.061Z,23.14
2022-08-19T00:09:25.009Z,23.17
2022-08-19T00:11:54.275Z,23.19
2022-08-19T00:14:21.866Z,23.17
2022-08-19T00:16:50.046Z,23.03
2022-08-19T00:19:17.579Z,23.02
2022-08-19T00:21:45.058Z,22.99
2022-08-19T00:24:14.384Z,22.98
2022-08-19T00:26:42.906Z,22.90
2022-08-19T00:29:13.880Z,22.79
2022-08-19T00:31:43.300Z,22.85
2022-08-19T00:34:14.827Z,22.93
2022-08-19T00:36:43.865Z,22.99
2022-08-19T00:39:11.143Z,22.94
2022-08-19T00:41:38.894Z,22.91
2022-08-19T00:44:18.125Z,23.00
2022-08-19T00:46:55.197Z,23.00
2022-08-19T00:49:46.902Z,22.94
2022-08-19T00:52:17.754Z,22.85
2022-08-19T00:54:52.618Z,22.72
2022-08-19T00:57:24.407Z,22.70
2022-08-19T01:00:02.247Z,22.78
2022-08-19T01:02:32.166Z,22.78
2022-08-19T01:05:02.854Z,22.79
2022-08-19T01:07:37.726Z,22.81
2022-08-19T01:10:10.279Z,22.85
2022-08-19T01:12:38.368Z,22.83
2022-08-19T01:15:09.242Z,22.76
2022-08-19T01:17:41.305Z,22.69
2022-08-19T01:20:16.201Z,22.58
2022-08-19T01:22:47.977Z,22.49
2022-08-19T01:25:17.238Z,22.44
2022-08-19T01:27:49.962Z,22.36
2022-08-19T01:30:25.455Z,22.33
2022-08-19T01:32:54.833Z,22.28
2022-08-19T01:35:24.662Z,22.14
2022-08-19T01:38:00.929Z,22.15
2022-08-19T01:40:31.899Z,22.10
2022-08-19T01:42:59.577Z,22.09
2022-08-19T01:45:29.998Z,21.93
2022-08-19T01:48:01.427Z,21.94
2022-08-19T01:50:34.963Z,21.73
2022-08-19T01:53:06.522Z,21.63
2022-08-19T01:55:42.202Z,21.63
2022-08-19T01:58:16.108Z,21.54
2022-08-19T02:00:44.902Z,21.52
2022-08-19T02:03:12.538Z,21.45
2022-08-19T02:05:41.405Z,21.39
2022-08-19T02:08:09.529Z,21.23
2022-08-19T02:10:42.257Z,21.24
2022-08-19T02:13:10.535Z,21.21
2022-08-19T02:15:38.422Z,21.22
2022-08-19T02:18:06.483Z,21.33
2022-08-19T02:20:34.355Z,21.36
2022-08-19T02:23:02.410Z,21.40
2022-08-19T02:25:29.408Z,21.45
2022-08-19T02:27:57.375Z,21.49
2022-08-19T02:30:25.643Z,21.52
2022-08-19T02:32:54.186Z,21.48
2022-08-19T02:35:23.101Z,21.43
2022-08-19T02:38:09.195Z,21.47
2022-08-19T02:40:37.902Z,21.43
2022-08-19T02:43:08.420Z,21.45
2022-08-19T02:45:41.311Z,21.36
2022-08-19T02:48:14.851Z,21.38
2022-08-19T02:50:58.250Z,21.41
2022-08-19T02:53:28.703Z,21.36
2022-08-19T02:55:56.852Z,21.24
2022-08-19T02:58:25.396Z,21.21
2022-08-19T03:00:55.509Z,21.22
2022-08-19T03:03:22.973Z,21.14
2022-08-19T03:05:56.090Z,21.16
2022-08-19T03:08:25.423Z,21.10
2022-08-19T03:10:54.452Z,21.08
2022-08-19T03:13:24.397Z,21.07
2022-08-19T03:15:51.356Z,21.10
2022-08-19T03:18:19.500Z,21.12
2022-08-19T03:20:52.961Z,21.11
2022-08-19T03:23:21.064Z,21.04
2022-08-19T03:25:58.217Z,21.00
2022-08-19T03:28:32.399Z,20.96
2022-08-19T03:31:41.687Z,20.96
2022-08-19T03:33:56.791Z,20.85
2022-08-19T03:36:26.798Z,20.88
2022-08-19T03:39:00.803Z,20.93
2022-08-19T03:41:44.682Z,20.94
2022-08-19T03:44:17.730Z,20.94
2022-08-19T03:46:53.721Z,20.95
2022-08-19T03:49:27.128Z,20.95
2022-08-19T03:51:58.806Z,21.00
2022-08-19T03:54:26.933Z,21.00
2022-08-19T03:56:56.126Z,21.01
2022-08-19T03:59:30.913Z,21.05
2022-08-19T04:01:59.944Z,21.08
2022-08-19T04:04:29.274Z,21.11
2022-08-19T04:06:58.644Z,21.13
2022-08-19T04:09:25.719Z,21.07
2022-08-19T04:11:55.219Z,21.10
2022-08-19T04:14:25.895Z,21.10
2022-08-19T04:16:54.303Z,21.10
2022-08-19T04:19:21.706Z,20.96
2022-08-19T04:21:52.843Z,20.90
2022-08-19T04:24:21.650Z,20.91
2022-08-19T04:26:48.942Z,20.97
2022-08-19T04:29:26.854Z,21.01
2022-08-19T04:31:56.766Z,21.09
2022-08-19T04:34:26.971Z,21.11
2022-08-19T04:36:58.323Z,21.11
2022-08-19T04:39:50.575Z,21.19
2022-08-19T04:42:37.571Z,21.24
2022-08-19T04:45:12.329Z,21.24
2022-08-19T04:47:47.119Z,21.31
2022-08-19T04:50:20.316Z,21.39
2022-08-19T04:52:47.348Z,21.49
2022-08-19T04:55:15.429Z,21.60
2022-08-19T04:57:42.794Z,21.67
2022-08-19T05:00:11.208Z,21.76
2022-08-19T05:02:39.001Z,21.75
2022-08-19T05:05:08.274Z,21.65
2022-08-19T05:07:35.656Z,21.67
2022-08-19T05:10:06.090Z,21.70
2022-08-19T05:12:33.950Z,21.69
2022-08-19T05:15:01.850Z,21.74
2022-08-19T05:17:32.401Z,21.80
2022-08-19T05:20:24.218Z,21.95
2022-08-19T05:22:51.666Z,22.07
2022-08-19T05:25:21.398Z,22.21
2022-08-19T05:27:49.441Z,22.37
2022-08-19T05:30:18.824Z,22.48
2022-08-19T05:33:01.357Z,22.62
2022-08-19T05:35:30.149Z,22.68
2022-08-19T05:38:02.263Z,22.77
2022-08-19T05:40:29.704Z,22.83
2022-08-19T05:42:57.307Z,22.91
2022-08-19T05:45:24.272Z,22.89
2022-08-19T05:47:51.636Z,22.94
2022-08-19T05:50:18.879Z,23.00
2022-08-19T05:52:50.712Z,23.13
2022-08-19T05:55:18.273Z,23.27
2022-08-19T05:57:45.834Z,23.37
2022-08-19T06:00:14.518Z,23.44
2022-08-19T06:02:42.009Z,23.58
2022-08-19T06:05:10.953Z,23.65
2022-08-19T06:07:39.314Z,23.75
2022-08-19T06:10:09.153Z,23.87
2022-08-19T06:12:39.725Z,23.88
2022-08-19T06:15:14.582Z,24.03
2022-08-19T06:17:43.246Z,24.07
2022-08-19T06:20:14.290Z,24.19
2022-08-19T06:22:44.299Z,24.25
2022-08-19T06:25:12.743Z,24.33
2022-08-19T06:28:11.633Z,24.38
2022-08-19T06:30:28.508Z,24.47
2022-08-19T06:32:55.490Z,24.45
2022-08-19T06:35:22.817Z,24.33
2022-08-19T06:37:50.068Z,24.43
2022-08-19T06:40:17.387Z,24.40
2022-08-19T06:42:54.321Z,24.50
2022-08-19T06:45:34.801Z,24.75
2022-08-19T06:48:04.133Z,24.89
2022-08-19T06:50:31.356Z,24.91
2022-08-19T06:52:58.679Z,24.94
2022-08-19T06:55:33.614Z,24.95
2022-08-19T06:58:04.638Z,25.07
2022-08-19T07:00:32.553Z,25.12
2022-08-19T07:03:04.552Z,25.18
2022-08-19T07:05:41.119Z,25.24
2022-08-19T07:08:14.056Z,25.42
2022-08-19T07:10:45.628Z,25.70
2022-08-19T07:13:13.056Z,25.91
2022-08-19T07:15:40.539Z,26.12
2022-08-19T07:18:08.085Z,26.32
2022-08-19T07:20:41.983Z,26.51
2022-08-19T07:23:12.044Z,26.69
2022-08-19T07:25:44.538Z,26.87
2022-08-19T07:28:23.071Z,26.97
2022-08-19T07:30:52.812Z,27.11
2022-08-19T07:33:20.696Z,27.27
2022-08-19T07:35:48.099Z,27.40
2022-08-19T07:38:16.390Z,27.57
2022-08-19T07:40:47.488Z,27.71
2022-08-19T07:43:17.776Z,27.85
2022-08-19T07:45:46.387Z,28.01
2022-08-19T07:48:14.425Z,28.14
2022-08-19T07:50:41.960Z,28.26
2022-08-19T07:53:08.900Z,28.37
2022-08-19T07:55:41.264Z,28.40
2022-08-19T07:58:13.491Z,28.54
2022-08-19T08:00:42.092Z,28.65
2022-08-19T08:03:10.241Z,28.78
2022-08-19T08:05:56.296Z,28.89
2022-08-19T08:08:44.382Z,28.95
2022-08-19T08:11:15.986Z,29.10
2022-08-19T08:13:44.572Z,29.23
2022-08-19T08:16:14.397Z,29.33
2022-08-19T08:18:50.471Z,29.44
2022-08-19T08:21:17.943Z,29.43
2022-08-19T08:23:45.370Z,29.53
2022-08-19T08:26:15.939Z,29.65
2022-08-19T08:28:49.463Z,29.72
2022-08-19T08:31:17.522Z,29.83
2022-08-19T08:33:44.661Z,29.89
2022-08-19T08:36:14.746Z,29.99
2022-08-19T08:38:44.392Z,30.10
2022-08-19T08:41:14.493Z,30.21
2022-08-19T08:43:45.190Z,30.28
2022-08-19T08:46:41.153Z,30.48
2022-08-19T08:49:34.777Z,30.56
2022-08-19T08:52:08.004Z,30.62
2022-08-19T08:54:48.940Z,30.74
2022-08-19T08:57:43.539Z,30.81
2022-08-19T09:00:21.017Z,30.92
2022-08-19T09:02:51.006Z,31.07
2022-08-19T09:05:25.764Z,31.17
2022-08-19T09:08:01.725Z,31.21
2022-08-19T09:10:45.425Z,31.24
2022-08-19T09:13:28.574Z,31.34
2022-08-19T09:16:12.545Z,31.42
2022-08-19T09:18:54.480Z,31.53
2022-08-19T09:21:30.565Z,31.56
2022-08-19T09:24:00.997Z,31.62
2022-08-19T09:26:47.243Z,31.72
2022-08-19T09:29:22.561Z,31.87
2022-08-19T09:31:51.247Z,31.98
2022-08-19T09:34:22.141Z,32.03
2022-08-19T09:36:54.822Z,31.98
2022-08-19T09:39:23.257Z,31.99
2022-08-19T09:41:51.157Z,31.95
2022-08-19T09:44:21.932Z,31.99
2022-08-19T09:46:49.499Z,32.09
2022-08-19T09:49:19.087Z,32.18
2022-08-19T09:51:51.365Z,32.30
2022-08-19T09:54:23.667Z,32.45
2022-08-19T09:56:55.087Z,32.57
2022-08-19T09:59:22.600Z,32.67
2022-08-19T10:01:50.620Z,32.73
2022-08-19T10:04:20.477Z,32.68
2022-08-19T10:06:51.826Z,32.65
2022-08-19T10:09:26.099Z,32.74
2022-08-19T10:12:02.861Z,32.85
2022-08-19T10:14:30.276Z,32.93
2022-08-19T10:16:59.274Z,33.04
2022-08-19T10:19:26.979Z,33.15
2022-08-19T10:21:55.674Z,33.23
2022-08-19T10:24:29.071Z,33.29
2022-08-19T10:26:58.923Z,33.33
2022-08-19T10:29:32.654Z,33.45
2022-08-19T10:32:09.527Z,33.55
2022-08-19T10:34:48.076Z,33.68
2022-08-19T10:37:23.542Z,33.82
2022-08-19T10:39:51.852Z,33.95
2022-08-19T10:42:21.835Z,34.04
2022-08-19T10:44:49.406Z,34.13
2022-08-19T10:47:25.927Z,34.23
2022-08-19T10:50:14.559Z,34.36
2022-08-19T10:52:49.145Z,34.51
2022-08-19T10:55:43.503Z,34.65
2022-08-19T10:58:15.844Z,34.80
2022-08-19T11:00:44.842Z,34.91
2022-08-19T11:03:12.169Z,35.03
2022-08-19T11:05:40.690Z,35.12
2022-08-19T11:08:22.673Z,35.23
2022-08-19T11:10:54.737Z,35.39
2022-08-19T11:13:24.608Z,35.55
2022-08-19T11:16:16.216Z,35.75
2022-08-19T11:18:48.013Z,35.87
2022-08-19T11:21:25.981Z,36.03
2022-08-19T11:23:56.649Z,36.12
2022-08-19T11:26:24.361Z,36.19
2022-08-19T11:28:55.225Z,36.36
2022-08-19T11:31:30.588Z,36.54
2022-08-19T11:34:00.839Z,36.70
2022-08-19T11:36:28.581Z,36.90
2022-08-19T11:38:57.199Z,37.11
2022-08-19T11:41:25.506Z,37.33
2022-08-19T11:43:56.182Z,37.36
2022-08-19T11:46:26.177Z,37.41
2022-08-19T11:48:53.740Z,37.48
2022-08-19T11:51:25.546Z,37.83
2022-08-19T11:53:54.369Z,38.15
2022-08-19T11:56:22.490Z,38.37
2022-08-19T11:58:50.291Z,38.22
2022-08-19T12:01:21.435Z,38.43
2022-08-19T12:03:50.969Z,38.72
2022-08-19T12:06:27.327Z,38.67
2022-08-19T12:08:55.116Z,38.87
2022-08-19T12:11:22.604Z,38.79
2022-08-19T12:13:50.110Z,39.07
2022-08-19T12:16:22.632Z,39.37
2022-08-19T12:18:52.890Z,39.50
2022-08-19T12:21:23.745Z,39.28
2022-08-19T12:23:55.634Z,39.60
2022-08-19T12:26:25.167Z,39.90
2022-08-19T12:28:52.644Z,40.18
2022-08-19T12:31:20.829Z,39.85
2022-08-19T12:33:49.410Z,39.76
2022-08-19T12:36:18.532Z,39.96
2022-08-19T12:38:46.270Z,40.22
2022-08-19T12:41:20.595Z,40.39
2022-08-19T12:43:49.297Z,40.27
2022-08-19T12:46:17.564Z,40.50
2022-08-19T12:48:46.999Z,40.47
2022-08-19T12:51:20.664Z,40.31
2022-08-19T12:53:49.792Z,40.41
2022-08-19T12:56:20.046Z,40.17
2022-08-19T12:58:51.048Z,39.93
2022-08-19T13:01:23.235Z,39.76
2022-08-19T13:03:54.194Z,39.80
2022-08-19T13:06:22.482Z,40.06
2022-08-19T13:08:49.570Z,40.48
2022-08-19T13:11:19.932Z,40.71
2022-08-19T13:13:50.760Z,41.07
2022-08-19T13:16:19.356Z,41.63
2022-08-19T13:18:57.699Z,41.92
2022-08-19T13:21:28.843Z,42.14
2022-08-19T13:23:56.793Z,42.42
2022-08-19T13:26:24.841Z,42.51
2022-08-19T13:29:10.677Z,42.45
2022-08-19T13:32:00.257Z,42.55
2022-08-19T13:34:34.943Z,42.72
2022-08-19T13:37:06.847Z,42.83
2022-08-19T13:39:35.224Z,42.97
2022-08-19T13:42:03.051Z,42.85
2022-08-19T13:44:31.139Z,42.43
2022-08-19T13:47:07.338Z,42.53
2022-08-19T13:49:38.081Z,42.67
2022-08-19T13:52:06.788Z,42.18
2022-08-19T13:54:34.336Z,42.47
2022-08-19T13:57:01.811Z,42.81
2022-08-19T13:59:29.040Z,42.97
2022-08-19T14:02:00.544Z,42.89
2022-08-19T14:04:30.623Z,42.45
2022-08-19T14:06:57.618Z,41.60
2022-08-19T14:09:25.195Z,41.12
2022-08-19T14:11:52.909Z,41.06
2022-08-19T14:14:20.119Z,41.20
2022-08-19T14:16:47.166Z,41.52
2022-08-19T14:19:14.774Z,42.11
2022-08-19T14:21:42.267Z,42.56
2022-08-19T14:24:09.968Z,42.69
2022-08-19T14:26:37.299Z,42.97
2022-08-19T14:29:06.250Z,43.07
2022-08-19T14:31:33.215Z,41.93
2022-08-19T14:34:01.173Z,41.94
2022-08-19T14:36:28.133Z,42.31
2022-08-19T14:38:55.842Z,42.27
2022-08-19T14:41:24.495Z,42.03
2022-08-19T14:43:53.309Z,42.48
2022-08-19T14:46:22.773Z,42.80
2022-08-19T14:48:52.574Z,43.24
2022-08-19T14:51:21.214Z,43.00
2022-08-19T14:53:52.869Z,41.71
2022-08-19T14:56:25.290Z,41.71
2022-08-19T14:58:53.624Z,42.13
2022-08-19T15:01:23.203Z,42.41
2022-08-19T15:03:50.669Z,42.86
2022-08-19T15:06:17.848Z,43.16
2022-08-19T15:08:45.983Z,43.20
2022-08-19T15:11:21.287Z,42.85
2022-08-19T15:13:49.205Z,43.08
2022-08-19T15:16:18.394Z,42.49
2022-08-19T15:18:47.628Z,42.19
2022-08-19T15:21:26.500Z,41.42
2022-08-19T15:23:57.742Z,41.76
2022-08-19T15:26:26.819Z,42.01
2022-08-19T15:28:54.306Z,42.09
2022-08-19T15:31:28.736Z,42.20
2022-08-19T15:33:58.814Z,42.51
2022-08-19T15:36:27.419Z,42.51
2022-08-19T15:38:58.630Z,42.74
2022-08-19T15:41:30.815Z,42.69
2022-08-19T15:44:04.767Z,42.74
2022-08-19T15:46:34.093Z,42.06
2022-08-19T15:49:01.689Z,41.93
2022-08-19T15:51:32.629Z,41.58
2022-08-19T15:54:00.435Z,40.94
2022-08-19T15:56:58.282Z,41.18
2022-08-19T15:59:47.095Z,41.52
2022-08-19T16:02:35.205Z,41.55
2022-08-19T16:05:26.552Z,41.40
2022-08-19T16:07:55.178Z,41.21
2022-08-19T16:10:27.420Z,40.78
2022-08-19T16:12:58.046Z,40.49
2022-08-19T16:15:30.639Z,40.77
2022-08-19T16:17:58.875Z,40.81
2022-08-19T16:20:27.991Z,40.90
2022-08-19T16:22:58.299Z,40.83
2022-08-19T16:25:29.066Z,40.69
2022-08-19T16:28:07.778Z,40.45
2022-08-19T16:30:41.336Z,40.24
2022-08-19T16:33:10.071Z,40.16
2022-08-19T16:35:37.887Z,39.99
2022-08-19T16:38:07.201Z,39.74
2022-08-19T16:40:34.960Z,39.54
2022-08-19T16:43:03.052Z,39.34
2022-08-19T16:45:30.784Z,39.08
2022-08-19T16:47:58.341Z,38.80
2022-08-19T16:50:45.823Z,38.69
2022-08-19T16:53:13.364Z,38.43
2022-08-19T16:55:41.280Z,38.17
2022-08-19T16:58:08.549Z,37.98
2022-08-19T17:00:39.104Z,37.68
2022-08-19T17:03:14.670Z,36.92
2022-08-19T17:06:03.848Z,36.15
2022-08-19T17:08:32.682Z,35.56
2022-08-19T17:11:17.005Z,35.27
2022-08-19T17:13:47.594Z,34.86
2022-08-19T17:16:16.602Z,34.50
2022-08-19T17:18:44.233Z,34.26
2022-08-19T17:21:13.485Z,34.12
2022-08-19T17:23:42.942Z,33.84
2022-08-19T17:26:18.065Z,33.64
2022-08-19T17:28:49.926Z,33.47
2022-08-19T17:31:21.668Z,33.25
2022-08-19T17:33:50.022Z,33.18
2022-08-19T17:36:19.486Z,33.14
2022-08-19T17:38:47.404Z,33.02
2022-08-19T17:41:14.419Z,32.72
2022-08-19T17:43:43.948Z,32.44
2022-08-19T17:46:17.727Z,32.30
2022-08-19T17:48:52.199Z,32.13
2022-08-19T17:51:42.184Z,31.96
2022-08-19T17:54:14.099Z,31.83
2022-08-19T17:56:42.734Z,31.81
2022-08-19T17:59:13.972Z,31.69
2022-08-19T18:01:53.441Z,31.54
2022-08-19T18:04:26.147Z,31.45
2022-08-19T18:06:55.721Z,31.56
2022-08-19T18:09:27.269Z,31.74
2022-08-19T18:11:57.878Z,31.85
2022-08-19T18:14:33.643Z,31.99
2022-08-19T18:17:06.521Z,31.96
2022-08-19T18:19:42.092Z,31.90
2022-08-19T18:22:30.988Z,31.86
2022-08-19T18:24:58.851Z,31.80
2022-08-19T18:27:27.881Z,31.79
2022-08-19T18:30:00.043Z,31.84
2022-08-19T18:32:33.735Z,31.77
2022-08-19T18:35:10.905Z,31.66
2022-08-19T18:37:42.086Z,31.55
2022-08-19T18:40:32.458Z,31.53
2022-08-19T18:43:22.951Z,31.44
2022-08-19T18:46:10.406Z,31.34
2022-08-19T18:48:57.477Z,31.19
2022-08-19T18:51:28.577Z,31.12
2022-08-19T18:53:59.033Z,31.08
2022-08-19T18:56:29.697Z,31.05
2022-08-19T18:58:56.958Z,30.99
2022-08-19T19:01:37.238Z,30.88
2022-08-19T19:04:10.702Z,30.74
2022-08-19T19:06:41.502Z,30.62
2022-08-19T19:09:13.032Z,30.55
2022-08-19T19:11:46.885Z,30.54
2022-08-19T19:14:45.797Z,30.31
2022-08-19T19:17:14.378Z,30.33
2022-08-19T19:19:42.993Z,30.37
2022-08-19T19:22:12.999Z,30.21
2022-08-19T19:24:46.976Z,30.07
2022-08-19T19:27:18.503Z,29.97
2022-08-19T19:29:51.133Z,29.65
2022-08-19T19:32:36.899Z,29.66
2022-08-19T19:35:07.740Z,29.56
2022-08-19T19:37:34.960Z,29.53
2022-08-19T19:40:02.779Z,29.66
2022-08-19T19:42:29.759Z,29.76
2022-08-19T19:44:59.292Z,29.80
2022-08-19T19:47:28.565Z,29.74
2022-08-19T19:50:15.092Z,29.61
2022-08-19T19:52:46.827Z,29.49
2022-08-19T19:55:15.720Z,29.39
2022-08-19T19:57:42.674Z,29.19
2022-08-19T20:00:12.943Z,29.16
2022-08-19T20:02:39.902Z,29.07
2022-08-19T20:05:07.796Z,28.97
2022-08-19T20:07:54.357Z,28.93
2022-08-19T20:10:21.743Z,28.86
2022-08-19T20:12:48.746Z,28.69
2022-08-19T20:15:16.156Z,28.64
2022-08-19T20:17:43.169Z,28.62
2022-08-19T20:20:14.054Z,28.62
2022-08-19T20:22:44.243Z,28.67
2022-08-19T20:25:12.968Z,28.56
2022-08-19T20:27:41.770Z,28.52
2022-08-19T20:30:19.413Z,28.42
2022-08-19T20:32:49.581Z,28.47
2022-08-19T20:35:19.923Z,28.68
2022-08-19T20:37:47.686Z,28.78
2022-08-19T20:40:21.585Z,28.79
2022-08-19T20:42:50.800Z,28.70
2022-08-19T20:45:33.149Z,28.52
2022-08-19T20:48:02.986Z,28.33
2022-08-19T20:50:31.992Z,28.27
2022-08-19T20:52:59.350Z,28.20
2022-08-19T20:55:27.438Z,28.10
2022-08-19T20:57:55.621Z,28.08
2022-08-19T21:00:23.048Z,28.06
2022-08-19T21:02:50.271Z,28.02
2022-08-19T21:05:17.237Z,27.97
2022-08-19T21:07:44.925Z,27.97
2022-08-19T21:10:12.206Z,27.94
2022-08-19T21:12:40.675Z,27.86
2022-08-19T21:15:09.085Z,27.76
2022-08-19T21:17:36.664Z,27.77
2022-08-19T21:20:07.116Z,27.80
2022-08-19T21:22:34.788Z,27.83
2022-08-19T21:25:03.173Z,27.79
2022-08-19T21:27:30.607Z,27.63
2022-08-19T21:29:57.908Z,27.58
2022-08-19T21:32:26.950Z,27.51
2022-08-19T21:34:54.010Z,27.43
2022-08-19T21:37:25.585Z,27.44
2022-08-19T21:39:56.438Z,27.45
2022-08-19T21:42:24.659Z,27.39
2022-08-19T21:44:52.095Z,27.37
2022-08-19T21:47:19.296Z,27.38
2022-08-19T21:49:46.962Z,27.31
2022-08-19T21:52:14.000Z,27.27
2022-08-19T21:54:41.215Z,27.17
2022-08-19T21:57:10.769Z,27.17
2022-08-19T21:59:43.758Z,27.14
2022-08-19T22:02:21.562Z,27.04
2022-08-19T22:04:53.028Z,27.10
2022-08-19T22:07:22.139Z,27.11
2022-08-19T22:09:50.889Z,27.08
2022-08-19T22:12:28.761Z,27.05
2022-08-19T22:14:57.943Z,27.03
2022-08-19T22:17:27.533Z,26.87
2022-08-19T22:19:56.527Z,26.83
2022-08-19T22:22:28.799Z,26.86
2022-08-19T22:25:04.074Z,26.88
2022-08-19T22:27:31.524Z,26.88
2022-08-19T22:29:58.518Z,26.85
2022-08-19T22:32:28.551Z,26.80
2022-08-19T22:34:59.083Z,26.78
2022-08-19T22:37:29.831Z,26.77
2022-08-19T22:39:57.159Z,26.76
2022-08-19T22:42:30.780Z,26.77
2022-08-19T22:45:00.573Z,26.70
2022-08-19T22:47:29.448Z,26.64
2022-08-19T22:49:59.805Z,26.46
2022-08-19T22:52:27.147Z,26.37
2022-08-19T22:54:59.249Z,26.27
2022-08-19T22:57:27.521Z,26.21
2022-08-19T22:59:55.465Z,26.18
2022-08-19T23:02:38.488Z,26.18
2022-08-19T23:05:10.966Z,26.06
2022-08-19T23:07:39.187Z,26.04
2022-08-19T23:10:10.650Z,26.05
2022-08-19T23:12:41.412Z,26.03
2022-08-19T23:15:20.339Z,26.08
2022-08-19T23:17:47.626Z,26.06
2022-08-19T23:20:16.375Z,26.05
2022-08-19T23:22:48.231Z,26.01
2022-08-19T23:25:22.306Z,25.83
2022-08-19T23:28:09.410Z,25.73
2022-08-19T23:30:39.046Z,25.54
2022-08-19T23:33:15.328Z,25.64
2022-08-19T23:35:44.614Z,25.58
2022-08-19T23:38:11.620Z,25.45
2022-08-19T23:40:39.886Z,25.20
2022-08-19T23:43:08.122Z,25.05
2022-08-19T23:45:39.593Z,25.00
2022-08-19T23:48:08.212Z,24.94
2022-08-19T23:50:36.624Z,24.95
2022-08-19T23:53:04.234Z,25.03
2022-08-19T23:55:36.033Z,25.09
2022-08-19T23:58:04.340Z,25.06
